createdAt,value
2023-01-09T00:00:51.851Z,99.95
2023-01-09T00:03:18.740Z,100.00
2023-01-09T00:05:45.514Z,99.74
2023-01-09T00:08:12.499Z,99.79
2023-01-09T00:10:39.577Z,99.52
2023-01-09T00:13:06.691Z,98.61
2023-01-09T00:15:34.080Z,99.50
2023-01-09T00:18:01.084Z,99.24
2023-01-09T00:20:27.990Z,98.51
2023-01-09T00:22:54.907Z,99.79
2023-01-09T00:25:22.926Z,100.00
2023-01-09T00:27:49.873Z,100.00
2023-01-09T00:30:16.793Z,100.00
2023-01-09T00:32:43.644Z,100.00
2023-01-09T00:35:15.785Z,100.00
2023-01-09T00:37:42.768Z,100.00
2023-01-09T00:40:10.624Z,100.00
2023-01-09T00:42:37.940Z,100.00
2023-01-09T00:45:09.828Z,100.00
2023-01-09T00:47:40.583Z,100.00
2023-01-09T00:50:13.897Z,100.00
2023-01-09T00:52:41.262Z,100.00
2023-01-09T00:55:09.466Z,100.00
2023-01-09T00:57:36.453Z,100.00
2023-01-09T01:00:03.945Z,100.00
2023-01-09T01:02:30.900Z,100.00
2023-01-09T01:05:16.372Z,100.00
2023-01-09T01:07:45.076Z,100.00
2023-01-09T01:10:17.735Z,100.00
2023-01-09T01:12:44.846Z,100.00
2023-01-09T01:15:12.854Z,100.00
2023-01-09T01:17:41.163Z,100.00
2023-01-09T01:20:14.114Z,100.00
2023-01-09T01:22:42.652Z,100.00
2023-01-09T01:25:11.531Z,100.00
2023-01-09T01:27:38.718Z,100.00
2023-01-09T01:30:07.946Z,100.00
2023-01-09T01:32:34.900Z,100.00
2023-01-09T01:35:01.779Z,100.00
2023-01-09T01:37:28.624Z,100.00
2023-01-09T01:39:55.812Z,100.00
2023-01-09T01:42:23.319Z,100.00
2023-01-09T01:45:11.181Z,100.00
2023-01-09T01:48:03.396Z,100.00
2023-01-09T01:50:41.323Z,100.00
2023-01-09T01:53:20.746Z,100.00
2023-01-09T01:55:53.934Z,100.00
2023-01-09T01:58:21.034Z,100.00
2023-01-09T02:00:48.069Z,100.00
2023-01-09T02:03:23.512Z,100.00
2023-01-09T02:05:50.417Z,100.00
2023-01-09T02:08:18.173Z,100.00
2023-01-09T02:10:45.711Z,100.00
2023-01-09T02:13:49.752Z,100.00
2023-01-09T02:16:48.097Z,100.00
2023-01-09T02:19:23.808Z,100.00
2023-01-09T02:22:16.785Z,100.00
2023-01-09T02:25:00.917Z,100.00
2023-01-09T02:28:05.593Z,100.00
2023-01-09T02:30:38.507Z,100.00
2023-01-09T02:33:14.256Z,100.00
2023-01-09T02:36:05.277Z,100.00
2023-01-09T02:39:02.908Z,100.00
2023-01-09T02:41:48.757Z,100.00
2023-01-09T02:44:25.467Z,100.00
2023-01-09T02:47:29.442Z,100.00
2023-01-09T02:50:00.322Z,100.00
2023-01-09T02:52:54.135Z,100.00
2023-01-09T02:55:24.612Z,100.00
2023-01-09T02:58:04.935Z,100.00
2023-01-09T03:00:34.775Z,100.00
2023-01-09T03:03:10.355Z,100.00
2023-01-09T03:05:52.650Z,100.00
2023-01-09T03:08:27.784Z,100.00
2023-01-09T03:11:01.765Z,100.00
2023-01-09T03:13:34.091Z,100.00
2023-01-09T03:16:05.568Z,100.00
2023-01-09T03:18:36.449Z,100.00
2023-01-09T03:21:06.473Z,100.00
2023-01-09T03:23:46.301Z,100.00
2023-01-09T03:26:13.161Z,100.00
2023-01-09T03:28:40.054Z,100.00
2023-01-09T03:31:06.950Z,100.00
2023-01-09T03:33:33.912Z,100.00
2023-01-09T03:36:01.019Z,100.00
2023-01-09T03:38:27.909Z,100.00
2023-01-09T03:40:54.843Z,100.00
2023-01-09T03:43:21.918Z,100.00
2023-01-09T03:45:48.984Z,100.00
2023-01-09T03:48:16.010Z,100.00
2023-01-09T03:50:45.984Z,100.00
2023-01-09T03:53:13.985Z,100.00
2023-01-09T03:55:44.170Z,100.00
2023-01-09T03:58:11.089Z,100.00
2023-01-09T04:00:39.334Z,100.00
2023-01-09T04:03:07.983Z,100.00
2023-01-09T04:05:35.062Z,100.00
2023-01-09T04:08:02.135Z,100.00
2023-01-09T04:10:29.005Z,100.00
2023-01-09T04:12:55.916Z,100.00
2023-01-09T04:15:23.261Z,100.00
2023-01-09T04:17:50.438Z,100.00
2023-01-09T04:20:17.588Z,100.00
2023-01-09T04:22:45.040Z,100.00
2023-01-09T04:25:12.199Z,100.00
2023-01-09T04:27:39.213Z,100.00
2023-01-09T04:30:06.812Z,100.00
2023-01-09T04:32:33.656Z,100.00
2023-01-09T04:35:00.522Z,100.00
2023-01-09T04:37:27.456Z,100.00
2023-01-09T04:39:56.251Z,100.00
2023-01-09T04:42:24.544Z,100.00
2023-01-09T04:44:54.309Z,100.00
2023-01-09T04:47:22.050Z,100.00
2023-01-09T04:49:48.829Z,100.00
2023-01-09T04:52:15.700Z,100.00
2023-01-09T04:54:42.577Z,100.00
2023-01-09T04:57:09.597Z,100.00
2023-01-09T04:59:39.291Z,100.00
2023-01-09T05:02:06.430Z,100.00
2023-01-09T05:04:33.469Z,100.00
2023-01-09T05:07:00.301Z,100.00
2023-01-09T05:09:27.157Z,100.00
2023-01-09T05:11:55.201Z,100.00
2023-01-09T05:14:22.093Z,100.00
2023-01-09T05:16:49.003Z,100.00
2023-01-09T05:19:16.147Z,100.00
2023-01-09T05:21:43.449Z,100.00
2023-01-09T05:24:10.303Z,100.00
2023-01-09T05:26:37.195Z,100.00
2023-01-09T05:29:03.974Z,100.00
2023-01-09T05:31:30.923Z,100.00
2023-01-09T05:33:59.395Z,100.00
2023-01-09T05:36:26.635Z,100.00
2023-01-09T05:38:53.518Z,100.00
2023-01-09T05:41:20.959Z,100.00
2023-01-09T05:43:48.532Z,100.00
2023-01-09T05:46:15.945Z,100.00
2023-01-09T05:48:42.851Z,100.00
2023-01-09T05:51:09.657Z,100.00
2023-01-09T05:53:36.571Z,100.00
2023-01-09T05:56:03.482Z,100.00
2023-01-09T05:58:30.269Z,100.00
2023-01-09T06:00:58.744Z,100.00
2023-01-09T06:03:25.522Z,100.00
2023-01-09T06:05:52.517Z,100.00
2023-01-09T06:08:19.377Z,100.00
2023-01-09T06:10:47.097Z,100.00
2023-01-09T06:13:14.315Z,100.00
2023-01-09T06:15:41.495Z,100.00
2023-01-09T06:18:08.363Z,100.00
2023-01-09T06:20:35.241Z,100.00
2023-01-09T06:23:02.075Z,100.00
2023-01-09T06:25:28.949Z,100.00
2023-01-09T06:27:55.756Z,100.00
2023-01-09T06:30:22.772Z,100.00
2023-01-09T06:32:50.010Z,100.00
2023-01-09T06:35:20.662Z,100.00
2023-01-09T06:37:49.979Z,100.00
2023-01-09T06:40:18.003Z,100.00
2023-01-09T06:42:45.731Z,100.00
2023-01-09T06:45:13.943Z,100.00
2023-01-09T06:47:41.251Z,100.00
2023-01-09T06:50:11.867Z,100.00
2023-01-09T06:52:39.644Z,100.00
2023-01-09T06:55:07.833Z,100.00
2023-01-09T06:57:35.143Z,100.00
2023-01-09T07:00:02.165Z,100.00
2023-01-09T07:02:29.388Z,100.00
2023-01-09T07:04:56.203Z,100.00
2023-01-09T07:07:23.056Z,100.00
2023-01-09T07:09:50.085Z,100.00
2023-01-09T07:12:17.100Z,100.00
2023-01-09T07:14:44.038Z,100.00
2023-01-09T07:17:13.857Z,100.00
2023-01-09T07:19:41.167Z,100.00
2023-01-09T07:22:08.592Z,100.00
2023-01-09T07:24:35.950Z,100.00
2023-01-09T07:27:03.202Z,100.00
2023-01-09T07:29:30.620Z,100.00
2023-01-09T07:31:57.719Z,100.00
2023-01-09T07:34:24.660Z,100.00
2023-01-09T07:36:51.947Z,100.00
2023-01-09T07:39:19.055Z,100.00
2023-01-09T07:41:46.243Z,100.00
2023-01-09T07:44:14.869Z,100.00
2023-01-09T07:46:42.015Z,100.00
2023-01-09T07:49:08.996Z,100.00
2023-01-09T07:51:35.935Z,100.00
2023-01-09T07:54:02.791Z,100.00
2023-01-09T07:56:29.660Z,100.00
2023-01-09T07:58:56.526Z,100.00
2023-01-09T08:01:26.551Z,100.00
2023-01-09T08:03:53.489Z,100.00
2023-01-09T08:06:20.406Z,100.00
2023-01-09T08:08:47.317Z,100.00
2023-01-09T08:11:14.186Z,100.00
2023-01-09T08:13:41.176Z,100.00
2023-01-09T08:16:08.235Z,100.00
2023-01-09T08:18:35.051Z,100.00
2023-01-09T08:21:01.906Z,100.00
2023-01-09T08:23:28.782Z,100.00
2023-01-09T08:25:55.610Z,100.00
2023-01-09T08:28:22.558Z,100.00
2023-01-09T08:30:49.353Z,100.00
2023-01-09T08:33:16.275Z,100.00
2023-01-09T08:35:44.518Z,100.00
2023-01-09T08:38:11.587Z,100.00
2023-01-09T08:40:38.785Z,100.00
2023-01-09T08:43:24.271Z,100.00
2023-01-09T08:46:20.786Z,100.00
2023-01-09T08:48:50.742Z,100.00
2023-01-09T08:51:17.576Z,100.00
2023-01-09T08:53:44.399Z,100.00
2023-01-09T08:56:11.299Z,100.00
2023-01-09T08:58:38.239Z,100.00
2023-01-09T09:01:06.858Z,100.00
2023-01-09T09:03:33.857Z,100.00
2023-01-09T09:06:00.698Z,100.00
2023-01-09T09:08:27.599Z,100.00
2023-01-09T09:10:54.558Z,100.00
2023-01-09T09:13:21.422Z,100.00
2023-01-09T09:15:48.396Z,100.00
2023-01-09T09:18:15.880Z,100.00
2023-01-09T09:20:43.291Z,100.00
2023-01-09T09:23:10.197Z,100.00
2023-01-09T09:25:38.655Z,100.00
2023-01-09T09:28:06.449Z,100.00
2023-01-09T09:30:38.548Z,100.00
2023-01-09T09:33:06.010Z,100.00
2023-01-09T09:35:34.264Z,100.00
2023-01-09T09:38:05.212Z,100.00
2023-01-09T09:40:55.697Z,100.00
2023-01-09T09:44:01.246Z,100.00
2023-01-09T09:46:37.079Z,100.00
2023-01-09T09:49:31.355Z,100.00
2023-01-09T09:52:09.880Z,100.00
2023-01-09T09:54:46.811Z,100.00
2023-01-09T09:57:23.254Z,100.00
2023-01-09T09:59:52.737Z,100.00
2023-01-09T10:02:33.338Z,100.00
2023-01-09T10:05:15.387Z,100.00
2023-01-09T10:07:48.189Z,100.00
2023-01-09T10:10:25.185Z,100.00
2023-01-09T10:12:58.708Z,100.00
2023-01-09T10:15:46.539Z,100.00
2023-01-09T10:18:40.356Z,100.00
2023-01-09T10:21:18.660Z,100.00
2023-01-09T10:24:07.498Z,100.00
2023-01-09T10:26:48.739Z,100.00
2023-01-09T10:29:23.055Z,100.00
2023-01-09T10:32:16.118Z,100.00
2023-01-09T10:34:50.420Z,100.00
2023-01-09T10:37:19.908Z,100.00
2023-01-09T10:40:18.269Z,100.00
2023-01-09T10:42:49.761Z,100.00
2023-01-09T10:45:24.227Z,100.00
2023-01-09T10:47:53.899Z,100.00
2023-01-09T10:50:22.922Z,100.00
2023-01-09T10:52:55.703Z,100.00
2023-01-09T10:55:41.142Z,100.00
2023-01-09T10:58:17.186Z,100.00
2023-01-09T11:00:45.224Z,100.00
2023-01-09T11:03:20.617Z,100.00
2023-01-09T11:05:57.965Z,100.00
2023-01-09T11:08:31.973Z,100.00
2023-01-09T11:11:01.131Z,100.00
2023-01-09T11:13:33.566Z,100.00
2023-01-09T11:16:07.782Z,100.00
2023-01-09T11:18:38.940Z,100.00
2023-01-09T11:21:36.282Z,100.00
2023-01-09T11:24:28.947Z,100.00
2023-01-09T11:27:28.172Z,100.00
2023-01-09T11:30:17.937Z,100.00
2023-01-09T11:32:45.857Z,100.00
2023-01-09T11:35:34.820Z,100.00
2023-01-09T11:38:13.068Z,100.00
2023-01-09T11:41:01.910Z,100.00
2023-01-09T11:43:39.922Z,100.00
2023-01-09T11:46:29.593Z,100.00
2023-01-09T11:48:59.104Z,100.00
2023-01-09T11:51:33.693Z,100.00
2023-01-09T11:54:26.230Z,100.00
2023-01-09T11:56:53.438Z,100.00
2023-01-09T11:59:25.442Z,100.00
2023-01-09T12:02:13.452Z,100.00
2023-01-09T12:04:54.364Z,100.00
2023-01-09T12:07:21.222Z,100.00
2023-01-09T12:10:12.359Z,100.00
2023-01-09T12:13:13.548Z,100.00
2023-01-09T12:16:01.832Z,100.00
2023-01-09T12:18:44.337Z,100.00
2023-01-09T12:21:26.325Z,100.00
2023-01-09T12:24:18.520Z,100.00
2023-01-09T12:26:45.335Z,100.00
2023-01-09T12:29:39.640Z,100.00
2023-01-09T12:32:31.015Z,100.00
2023-01-09T12:35:19.746Z,100.00
2023-01-09T12:37:54.511Z,100.00
2023-01-09T12:40:42.653Z,100.00
2023-01-09T12:43:24.450Z,100.00
2023-01-09T12:46:32.909Z,100.00
2023-01-09T12:49:42.306Z,100.00
2023-01-09T12:52:47.307Z,100.00
2023-01-09T12:55:24.622Z,100.00
2023-01-09T12:57:56.369Z,100.00
2023-01-09T13:00:49.727Z,100.00
2023-01-09T13:03:29.060Z,100.00
2023-01-09T13:05:57.641Z,100.00
2023-01-09T13:09:04.212Z,100.00
2023-01-09T13:11:57.634Z,100.00
2023-01-09T13:14:47.235Z,100.00
2023-01-09T13:17:24.035Z,100.00
2023-01-09T13:19:50.981Z,100.00
2023-01-09T13:22:18.329Z,100.00
2023-01-09T13:25:06.637Z,100.00
2023-01-09T13:27:39.557Z,100.00
2023-01-09T13:30:12.610Z,100.00
2023-01-09T13:32:50.039Z,100.00
2023-01-09T13:35:16.992Z,100.00
2023-01-09T13:37:51.924Z,100.00
2023-01-09T13:40:18.809Z,100.00
2023-01-09T13:43:02.711Z,100.00
2023-01-09T13:45:32.818Z,100.00
2023-01-09T13:48:09.026Z,100.00
2023-01-09T13:50:37.000Z,100.00
2023-01-09T13:53:28.137Z,100.00
2023-01-09T13:55:58.653Z,100.00
2023-01-09T13:58:31.941Z,100.00
2023-01-09T14:01:00.348Z,100.00
2023-01-09T14:03:27.255Z,100.00
2023-01-09T14:05:54.128Z,100.00
2023-01-09T14:08:24.237Z,100.00
2023-01-09T14:11:01.081Z,100.00
2023-01-09T14:13:39.066Z,100.00
2023-01-09T14:16:14.550Z,100.00
2023-01-09T14:19:08.116Z,100.00
2023-01-09T14:21:54.483Z,100.00
2023-01-09T14:24:43.955Z,100.00
2023-01-09T14:27:48.524Z,100.00
2023-01-09T14:30:27.785Z,100.00
2023-01-09T14:33:19.162Z,100.00
2023-01-09T14:35:52.873Z,100.00
2023-01-09T14:38:25.778Z,100.00
2023-01-09T14:40:59.813Z,100.00
2023-01-09T14:43:37.541Z,100.00
2023-01-09T14:46:11.566Z,100.00
2023-01-09T14:48:51.478Z,100.00
2023-01-09T14:51:20.671Z,100.00
2023-01-09T14:53:51.789Z,100.00
2023-01-09T14:56:31.421Z,100.00
2023-01-09T14:59:12.038Z,100.00
2023-01-09T15:01:42.326Z,100.00
2023-01-09T15:04:23.745Z,100.00
2023-01-09T15:06:50.948Z,100.00
2023-01-09T15:09:34.598Z,100.00
2023-01-09T15:12:08.281Z,100.00
2023-01-09T15:14:41.490Z,100.00
2023-01-09T15:17:26.479Z,100.00
2023-01-09T15:19:54.276Z,100.00
2023-01-09T15:22:34.946Z,100.00
2023-01-09T15:25:22.773Z,100.00
2023-01-09T15:28:00.376Z,100.00
2023-01-09T15:30:34.350Z,100.00
2023-01-09T15:33:04.873Z,100.00
2023-01-09T15:35:34.999Z,100.00
2023-01-09T15:38:01.762Z,100.00
2023-01-09T15:40:34.347Z,100.00
2023-01-09T15:43:02.060Z,100.00
2023-01-09T15:45:36.007Z,100.00
2023-01-09T15:48:18.170Z,100.00
2023-01-09T15:50:47.440Z,100.00
2023-01-09T15:53:17.229Z,100.00
2023-01-09T15:55:44.205Z,100.00
2023-01-09T15:58:29.615Z,100.00
2023-01-09T16:01:03.162Z,100.00
2023-01-09T16:03:30.385Z,100.00
2023-01-09T16:06:05.782Z,100.00
2023-01-09T16:08:42.747Z,100.00
2023-01-09T16:11:22.790Z,100.00
2023-01-09T16:13:50.700Z,100.00
2023-01-09T16:16:33.905Z,100.00
2023-01-09T16:19:01.061Z,100.00
2023-01-09T16:21:37.740Z,100.00
2023-01-09T16:24:25.271Z,100.00
2023-01-09T16:27:10.752Z,100.00
2023-01-09T16:29:39.540Z,100.00
2023-01-09T16:32:07.132Z,100.00
2023-01-09T16:34:35.767Z,100.00
2023-01-09T16:37:05.047Z,100.00
2023-01-09T16:39:40.403Z,97.13
2023-01-09T16:42:28.024Z,97.40
2023-01-09T16:44:54.852Z,98.33
2023-01-09T16:47:21.708Z,97.54
2023-01-09T16:49:50.647Z,92.61
2023-01-09T16:52:18.280Z,95.93
2023-01-09T16:54:47.521Z,97.77
2023-01-09T16:57:22.412Z,97.61
2023-01-09T16:59:59.758Z,95.27
2023-01-09T17:02:34.042Z,97.68
2023-01-09T17:05:02.334Z,94.96
2023-01-09T17:07:34.445Z,95.21
2023-01-09T17:10:02.310Z,92.25
2023-01-09T17:12:29.097Z,95.49
2023-01-09T17:14:55.956Z,94.14
2023-01-09T17:17:22.787Z,95.25
2023-01-09T17:19:49.678Z,92.54
2023-01-09T17:22:16.862Z,94.12
2023-01-09T17:25:02.427Z,93.31
2023-01-09T17:27:55.378Z,95.45
2023-01-09T17:30:23.119Z,100.00
2023-01-09T17:32:50.938Z,100.00
2023-01-09T17:35:17.940Z,100.00
2023-01-09T17:37:45.036Z,100.00
2023-01-09T17:40:26.440Z,100.00
2023-01-09T17:42:53.611Z,100.00
2023-01-09T17:45:20.697Z,100.00
2023-01-09T17:47:50.855Z,100.00
2023-01-09T17:50:21.171Z,100.00
2023-01-09T17:52:49.950Z,100.00
2023-01-09T17:55:20.388Z,100.00
2023-01-09T17:57:47.333Z,100.00
2023-01-09T18:00:36.930Z,100.00
2023-01-09T18:03:05.202Z,100.00
2023-01-09T18:05:32.193Z,100.00
2023-01-09T18:07:59.354Z,100.00
2023-01-09T18:10:29.633Z,100.00
2023-01-09T18:12:57.049Z,100.00
2023-01-09T18:15:24.668Z,100.00
2023-01-09T18:17:52.592Z,100.00
2023-01-09T18:20:19.625Z,100.00
2023-01-09T18:22:47.776Z,100.00
2023-01-09T18:25:14.648Z,100.00
2023-01-09T18:27:42.009Z,100.00
2023-01-09T18:30:09.776Z,100.00
2023-01-09T18:32:38.874Z,100.00
2023-01-09T18:35:06.057Z,100.00
2023-01-09T18:37:32.969Z,100.00
2023-01-09T18:40:00.249Z,100.00
2023-01-09T18:42:27.180Z,100.00
2023-01-09T18:44:54.978Z,100.00
2023-01-09T18:47:25.474Z,100.00
2023-01-09T18:49:52.869Z,100.00
2023-01-09T18:52:25.756Z,100.00
2023-01-09T18:54:58.453Z,100.00
2023-01-09T18:57:25.983Z,100.00
2023-01-09T18:59:57.156Z,100.00
2023-01-09T19:02:31.519Z,100.00
2023-01-09T19:04:59.729Z,100.00
2023-01-09T19:07:27.162Z,100.00
2023-01-09T19:09:54.215Z,100.00
2023-01-09T19:12:21.031Z,100.00
2023-01-09T19:14:48.063Z,100.00
2023-01-09T19:17:15.616Z,100.00
2023-01-09T19:19:42.599Z,100.00
2023-01-09T19:22:09.371Z,100.00
2023-01-09T19:24:37.829Z,100.00
2023-01-09T19:27:04.880Z,100.00
2023-01-09T19:29:31.874Z,100.00
2023-01-09T19:31:59.734Z,100.00
2023-01-09T19:34:26.630Z,100.00
2023-01-09T19:36:53.972Z,100.00
2023-01-09T19:39:21.460Z,100.00
2023-01-09T19:41:48.503Z,100.00
2023-01-09T19:44:15.323Z,100.00
2023-01-09T19:46:42.287Z,100.00
2023-01-09T19:49:09.536Z,100.00
2023-01-09T19:51:36.655Z,100.00
2023-01-09T19:56:34.135Z,100.00
2023-01-09T19:59:03.102Z,100.00
2023-01-09T20:01:32.502Z,100.00
2023-01-09T20:04:05.226Z,100.00
2023-01-09T20:06:32.288Z,100.00
2023-01-09T20:09:01.237Z,100.00
2023-01-09T20:11:31.493Z,100.00
2023-01-09T20:13:58.311Z,100.00
2023-01-09T20:16:30.694Z,100.00
2023-01-09T20:18:59.873Z,100.00
2023-01-09T20:21:28.600Z,100.00
2023-01-09T20:23:58.994Z,100.00
2023-01-09T20:26:26.502Z,100.00
2023-01-09T20:28:54.161Z,100.00
2023-01-09T20:31:22.489Z,100.00
2023-01-09T20:33:51.183Z,100.00
2023-01-09T20:36:19.620Z,100.00
2023-01-09T20:38:46.458Z,100.00
2023-01-09T20:41:25.564Z,100.00
2023-01-09T20:43:55.843Z,100.00
2023-01-09T20:46:24.355Z,100.00
2023-01-09T20:48:51.504Z,100.00
2023-01-09T20:51:18.725Z,100.00
2023-01-09T20:53:47.643Z,100.00
2023-01-09T20:56:14.853Z,100.00
2023-01-09T20:58:42.567Z,100.00
2023-01-09T21:01:11.976Z,100.00
2023-01-09T21:03:39.906Z,100.00
2023-01-09T21:06:26.227Z,100.00
2023-01-09T21:08:53.301Z,100.00
2023-01-09T21:11:22.061Z,100.00
2023-01-09T21:13:49.505Z,100.00
2023-01-09T21:16:21.789Z,100.00
2023-01-09T21:18:48.819Z,100.00
2023-01-09T21:21:18.882Z,100.00
2023-01-09T21:23:47.811Z,100.00
2023-01-09T21:26:15.779Z,100.00
2023-01-09T21:28:49.896Z,100.00
2023-01-09T21:31:20.982Z,100.00
2023-01-09T21:33:48.481Z,100.00
2023-01-09T21:36:16.139Z,100.00
2023-01-09T21:38:43.407Z,100.00
2023-01-09T21:41:29.428Z,100.00
2023-01-09T21:44:14.971Z,100.00
2023-01-09T21:46:55.972Z,100.00
2023-01-09T21:49:25.783Z,100.00
2023-01-09T21:51:54.472Z,100.00
2023-01-09T21:54:23.462Z,100.00
2023-01-09T21:56:51.667Z,100.00
2023-01-09T21:59:19.059Z,100.00
2023-01-09T22:01:46.350Z,100.00
2023-01-09T22:04:15.084Z,100.00
2023-01-09T22:06:42.182Z,100.00
2023-01-09T22:09:10.203Z,100.00
2023-01-09T22:11:41.361Z,100.00
2023-01-09T22:14:12.161Z,100.00
2023-01-09T22:16:39.057Z,100.00
2023-01-09T22:19:05.979Z,100.00
2023-01-09T22:21:33.013Z,100.00
2023-01-09T22:24:01.744Z,100.00
2023-01-09T22:26:30.151Z,100.00
2023-01-09T22:28:57.377Z,100.00
2023-01-09T22:31:29.513Z,100.00
2023-01-09T22:33:58.528Z,100.00
2023-01-09T22:36:28.223Z,100.00
2023-01-09T22:38:56.735Z,100.00
2023-01-09T22:41:24.654Z,100.00
2023-01-09T22:43:51.660Z,100.00
2023-01-09T22:46:18.680Z,100.00
2023-01-09T22:48:45.739Z,100.00
2023-01-09T22:51:18.609Z,100.00
2023-01-09T22:53:45.755Z,100.00
2023-01-09T22:56:14.982Z,100.00
2023-01-09T22:58:42.247Z,100.00
2023-01-09T23:01:12.599Z,100.00
2023-01-09T23:03:40.684Z,100.00
2023-01-09T23:06:12.990Z,100.00
2023-01-09T23:08:40.098Z,100.00
2023-01-09T23:11:10.865Z,100.00
2023-01-09T23:13:38.378Z,100.00
2023-01-09T23:16:05.623Z,100.00
2023-01-09T23:18:32.461Z,100.00
2023-01-09T23:21:02.079Z,100.00
2023-01-09T23:23:30.289Z,100.00
2023-01-09T23:26:00.171Z,100.00
2023-01-09T23:28:28.095Z,100.00
2023-01-09T23:30:54.942Z,100.00
2023-01-09T23:33:21.987Z,100.00
2023-01-09T23:35:49.087Z,100.00
2023-01-09T23:38:16.229Z,100.00
2023-01-09T23:40:43.202Z,100.00
2023-01-09T23:43:12.315Z,100.00
2023-01-09T23:45:50.502Z,100.00
2023-01-09T23:48:18.690Z,100.00
2023-01-09T23:50:53.751Z,100.00
2023-01-09T23:53:22.710Z,100.00
2023-01-09T23:55:52.247Z,100.00
2023-01-09T23:58:19.098Z,100.00
